DTTA/TUN METAR and TAF weather

Enter ICAO airport designator
Station Type Date Time Source
DTTA METAR 2019/10/21 22:30 UTC NOAA

DTTA 212230Z 14004KT 9999 FEW026 23/18 Q1018


Station Type Date Time Source
DTTA Decoded METAR 2019/10/21 22:30 UTC NOAA

Tunis-Carthage, Tunisia (DTTA) 36-50N 010-14E 4M
Oct 21, 2019 - 06:30 PM EDT / 2019.10.21 2230 UTC
Wind: from the SE (140 degrees) at 5 MPH (4 KT):0
Visibility: greater than 7 mile(s):0
Sky conditions: mostly clear
Temperature: 73 F (23 C)
Dew Point: 64 F (18 C)
Relative Humidity: 73%
Pressure (altimeter): 30.06 in. Hg (1018 hPa)
ob: DTTA 212230Z 14004KT 9999 FEW026 23/18 Q1018
cycle: 22

Station Type Date Time Source
DTTA TAF 2019/10/21 18:03 UTC NOAA

TAF DTTA 211700Z 2118/2218 12012KT 9999 FEW026
TEMPO 2202/2206 13017G29KT
BECMG 2206/2208 14015KT 9999 SCT020

Example: see airport list